sensor_id;sensor_type;location;lat;lon;timestamp;temperature;humidity
11639;DHT22;5875;35.940;126.892;2024-03-02T00:00:42;3.10;1.00
11639;DHT22;5875;35.940;126.892;2024-03-02T00:03:09;2.90;1.00
11639;DHT22;5875;35.940;126.892;2024-03-02T00:05:36;3.50;1.00
11639;DHT22;5875;35.940;126.892;2024-03-02T00:08:05;3.60;1.00
11639;DHT22;5875;35.940;126.892;2024-03-02T00:10:40;3.00;1.00
11639;DHT22;5875;35.940;126.892;2024-03-02T00:13:10;3.60;1.00
11639;DHT22;5875;35.940;126.892;2024-03-02T00:18:16;3.50;1.00
11639;DHT22;5875;35.940;126.892;2024-03-02T00:20:45;3.00;1.00
11639;DHT22;5875;35.940;126.892;2024-03-02T00:23:15;3.30;1.00
11639;DHT22;5875;35.940;126.892;2024-03-02T00:25:54;3.70;1.00
11639;DHT22;5875;35.940;126.892;2024-03-02T00:28:24;3.90;1.00
11639;DHT22;5875;35.940;126.892;2024-03-02T00:31:13;4.20;1.00
11639;DHT22;5875;35.940;126.892;2024-03-02T00:33:47;4.40;1.00
11639;DHT22;5875;35.940;126.892;2024-03-02T00:36:24;4.40;1.00
11639;DHT22;5875;35.940;126.892;2024-03-02T00:38:52;4.50;1.00
11639;DHT22;5875;35.940;126.892;2024-03-02T00:41:29;4.70;1.00
11639;DHT22;5875;35.940;126.892;2024-03-02T00:44:04;5.40;1.00
11639;DHT22;5875;35.940;126.892;2024-03-02T00:46:36;5.10;1.00
11639;DHT22;5875;35.940;126.892;2024-03-02T00:49:10;5.10;1.00
11639;DHT22;5875;35.940;126.892;2024-03-02T00:51:39;4.40;1.00
11639;DHT22;5875;35.940;126.892;2024-03-02T00:54:08;4.20;1.00
11639;DHT22;5875;35.940;126.892;2024-03-02T00:56:38;4.70;1.00
11639;DHT22;5875;35.940;126.892;2024-03-02T00:59:09;5.10;1.00
11639;DHT22;5875;35.940;126.892;2024-03-02T01:01:39;4.50;1.00
11639;DHT22;5875;35.940;126.892;2024-03-02T01:04:07;4.80;1.00
11639;DHT22;5875;35.940;126.892;2024-03-02T01:06:34;5.30;1.00
11639;DHT22;5875;35.940;126.892;2024-03-02T01:09:02;5.30;1.00
11639;DHT22;5875;35.940;126.892;2024-03-02T01:11:29;5.30;1.00
11639;DHT22;5875;35.940;126.892;2024-03-02T01:13:56;6.20;1.00
11639;DHT22;5875;35.940;126.892;2024-03-02T01:16:23;6.30;1.00
11639;DHT22;5875;35.940;126.892;2024-03-02T01:18:53;5.80;1.00
11639;DHT22;5875;35.940;126.892;2024-03-02T01:21:20;6.10;1.00
11639;DHT22;5875;35.940;126.892;2024-03-02T01:23:47;6.30;1.00
11639;DHT22;5875;35.940;126.892;2024-03-02T01:26:14;5.70;1.00
11639;DHT22;5875;35.940;126.892;2024-03-02T01:28:42;5.80;1.00
11639;DHT22;5875;35.940;126.892;2024-03-02T01:31:09;6.00;1.00
11639;DHT22;5875;35.940;126.892;2024-03-02T01:33:36;6.30;1.00
11639;DHT22;5875;35.940;126.892;2024-03-02T01:36:07;6.10;1.00
11639;DHT22;5875;35.940;126.892;2024-03-02T01:38:34;6.30;1.00
11639;DHT22;5875;35.940;126.892;2024-03-02T01:41:02;8.00;1.00
11639;DHT22;5875;35.940;126.892;2024-03-02T01:43:30;9.50;1.00
11639;DHT22;5875;35.940;126.892;2024-03-02T01:45:57;9.20;1.00
11639;DHT22;5875;35.940;126.892;2024-03-02T01:48:25;9.90;1.00
11639;DHT22;5875;35.940;126.892;2024-03-02T01:50:52;9.90;1.00
11639;DHT22;5875;35.940;126.892;2024-03-02T01:53:19;10.40;1.00
11639;DHT22;5875;35.940;126.892;2024-03-02T01:55:46;11.30;1.00
11639;DHT22;5875;35.940;126.892;2024-03-02T01:58:13;12.00;1.00
11639;DHT22;5875;35.940;126.892;2024-03-02T02:00:41;11.10;1.00
11639;DHT22;5875;35.940;126.892;2024-03-02T02:03:08;12.20;1.00
11639;DHT22;5875;35.940;126.892;2024-03-02T02:05:35;12.50;1.00
11639;DHT22;5875;35.940;126.892;2024-03-02T02:08:02;13.00;1.00
11639;DHT22;5875;35.940;126.892;2024-03-02T02:10:32;13.00;1.00
11639;DHT22;5875;35.940;126.892;2024-03-02T02:12:59;13.20;1.00
11639;DHT22;5875;35.940;126.892;2024-03-02T02:15:28;14.10;1.00
11639;DHT22;5875;35.940;126.892;2024-03-02T02:17:58;14.00;1.00
11639;DHT22;5875;35.940;126.892;2024-03-02T02:20:26;13.80;1.00
11639;DHT22;5875;35.940;126.892;2024-03-02T02:22:59;14.40;1.00
11639;DHT22;5875;35.940;126.892;2024-03-02T02:25:28;14.40;1.00
11639;DHT22;5875;35.940;126.892;2024-03-02T02:27:56;14.50;1.00
11639;DHT22;5875;35.940;126.892;2024-03-02T02:30:26;14.60;1.00
11639;DHT22;5875;35.940;126.892;2024-03-02T02:32:54;14.70;1.00
11639;DHT22;5875;35.940;126.892;2024-03-02T02:35:21;15.00;1.00
11639;DHT22;5875;35.940;126.892;2024-03-02T02:37:52;14.70;1.00
11639;DHT22;5875;35.940;126.892;2024-03-02T02:40:19;14.50;1.00
11639;DHT22;5875;35.940;126.892;2024-03-02T02:42:46;13.80;1.00
11639;DHT22;5875;35.940;126.892;2024-03-02T02:45:14;13.70;1.00
11639;DHT22;5875;35.940;126.892;2024-03-02T02:47:42;13.20;1.00
11639;DHT22;5875;35.940;126.892;2024-03-02T02:50:11;13.50;1.00
11639;DHT22;5875;35.940;126.892;2024-03-02T02:52:39;13.90;1.00
11639;DHT22;5875;35.940;126.892;2024-03-02T02:55:11;13.80;1.00
11639;DHT22;5875;35.940;126.892;2024-03-02T02:57:40;14.20;1.00
11639;DHT22;5875;35.940;126.892;2024-03-02T03:00:15;14.30;1.00
11639;DHT22;5875;35.940;126.892;2024-03-02T03:02:45;14.30;1.00
11639;DHT22;5875;35.940;126.892;2024-03-02T03:05:14;13.90;1.00
11639;DHT22;5875;35.940;126.892;2024-03-02T03:07:42;13.90;1.00
11639;DHT22;5875;35.940;126.892;2024-03-02T03:10:12;13.70;1.00
11639;DHT22;5875;35.940;126.892;2024-03-02T03:12:39;13.60;1.00
11639;DHT22;5875;35.940;126.892;2024-03-02T03:15:09;13.10;1.00
11639;DHT22;5875;35.940;126.892;2024-03-02T03:17:36;12.90;1.00
11639;DHT22;5875;35.940;126.892;2024-03-02T03:20:04;13.20;1.00
11639;DHT22;5875;35.940;126.892;2024-03-02T03:22:32;13.20;1.00
11639;DHT22;5875;35.940;126.892;2024-03-02T03:24:59;13.20;1.00
11639;DHT22;5875;35.940;126.892;2024-03-02T03:27:26;13.10;1.00
11639;DHT22;5875;35.940;126.892;2024-03-02T03:29:53;13.00;1.00
11639;DHT22;5875;35.940;126.892;2024-03-02T03:32:20;13.10;1.00
11639;DHT22;5875;35.940;126.892;2024-03-02T03:34:48;12.50;1.00
11639;DHT22;5875;35.940;126.892;2024-03-02T03:37:15;11.80;1.00
11639;DHT22;5875;35.940;126.892;2024-03-02T03:39:42;11.00;1.00
11639;DHT22;5875;35.940;126.892;2024-03-02T03:42:09;10.90;1.00
11639;DHT22;5875;35.940;126.892;2024-03-02T03:44:36;10.70;1.00
11639;DHT22;5875;35.940;126.892;2024-03-02T03:47:03;11.10;1.00
11639;DHT22;5875;35.940;126.892;2024-03-02T03:49:30;10.90;1.00
11639;DHT22;5875;35.940;126.892;2024-03-02T03:52:00;11.40;1.00
11639;DHT22;5875;35.940;126.892;2024-03-02T03:54:27;11.90;1.00
11639;DHT22;5875;35.940;126.892;2024-03-02T03:56:54;11.20;1.00
11639;DHT22;5875;35.940;126.892;2024-03-02T03:59:22;11.20;1.00
11639;DHT22;5875;35.940;126.892;2024-03-02T04:01:52;11.60;1.00
11639;DHT22;5875;35.940;126.892;2024-03-02T04:04:19;12.00;1.00
11639;DHT22;5875;35.940;126.892;2024-03-02T04:06:46;11.60;1.00
11639;DHT22;5875;35.940;126.892;2024-03-02T04:09:14;11.10;1.00
11639;DHT22;5875;35.940;126.892;2024-03-02T04:11:41;11.00;1.00
11639;DHT22;5875;35.940;126.892;2024-03-02T04:14:08;11.40;1.00
11639;DHT22;5875;35.940;126.892;2024-03-02T04:16:35;11.00;1.00
11639;DHT22;5875;35.940;126.892;2024-03-02T04:19:02;10.40;1.00
11639;DHT22;5875;35.940;126.892;2024-03-02T04:21:30;10.30;1.00
11639;DHT22;5875;35.940;126.892;2024-03-02T04:23:57;10.60;1.00
11639;DHT22;5875;35.940;126.892;2024-03-02T04:26:25;11.00;1.00
11639;DHT22;5875;35.940;126.892;2024-03-02T04:28:53;11.40;1.00
11639;DHT22;5875;35.940;126.892;2024-03-02T04:31:21;11.60;1.00
11639;DHT22;5875;35.940;126.892;2024-03-02T04:33:48;11.80;1.00
11639;DHT22;5875;35.940;126.892;2024-03-02T04:36:15;12.10;1.00
11639;DHT22;5875;35.940;126.892;2024-03-02T04:38:42;12.10;1.00
11639;DHT22;5875;35.940;126.892;2024-03-02T04:41:09;12.10;1.00
11639;DHT22;5875;35.940;126.892;2024-03-02T04:43:39;12.20;1.00
11639;DHT22;5875;35.940;126.892;2024-03-02T04:46:06;11.80;1.00
11639;DHT22;5875;35.940;126.892;2024-03-02T04:48:34;11.90;1.00
11639;DHT22;5875;35.940;126.892;2024-03-02T04:51:01;11.90;1.00
11639;DHT22;5875;35.940;126.892;2024-03-02T04:53:31;12.00;1.00
11639;DHT22;5875;35.940;126.892;2024-03-02T04:55:58;11.30;1.00
11639;DHT22;5875;35.940;126.892;2024-03-02T04:58:45;10.70;1.00
11639;DHT22;5875;35.940;126.892;2024-03-02T05:01:12;10.80;1.00
11639;DHT22;5875;35.940;126.892;2024-03-02T05:03:39;11.00;1.00
11639;DHT22;5875;35.940;126.892;2024-03-02T05:06:09;11.20;1.00
11639;DHT22;5875;35.940;126.892;2024-03-02T05:08:36;11.40;1.00
11639;DHT22;5875;35.940;126.892;2024-03-02T05:11:03;10.80;1.00
11639;DHT22;5875;35.940;126.892;2024-03-02T05:13:48;11.10;1.00
11639;DHT22;5875;35.940;126.892;2024-03-02T05:16:15;11.30;1.00
11639;DHT22;5875;35.940;126.892;2024-03-02T05:18:42;11.00;1.00
11639;DHT22;5875;35.940;126.892;2024-03-02T05:21:09;11.10;1.00
11639;DHT22;5875;35.940;126.892;2024-03-02T05:23:39;11.10;1.00
11639;DHT22;5875;35.940;126.892;2024-03-02T05:26:06;10.90;1.00
11639;DHT22;5875;35.940;126.892;2024-03-02T05:28:36;11.00;1.00
11639;DHT22;5875;35.940;126.892;2024-03-02T05:31:03;11.10;1.00
11639;DHT22;5875;35.940;126.892;2024-03-02T05:33:30;11.00;1.00
11639;DHT22;5875;35.940;126.892;2024-03-02T05:35:59;10.90;1.00
11639;DHT22;5875;35.940;126.892;2024-03-02T05:38:28;11.00;1.00
11639;DHT22;5875;35.940;126.892;2024-03-02T05:40:55;11.10;1.00
11639;DHT22;5875;35.940;126.892;2024-03-02T05:43:22;10.90;1.00
11639;DHT22;5875;35.940;126.892;2024-03-02T05:45:49;11.00;1.00
11639;DHT22;5875;35.940;126.892;2024-03-02T05:48:16;10.80;1.00
11639;DHT22;5875;35.940;126.892;2024-03-02T05:50:46;11.00;1.00
11639;DHT22;5875;35.940;126.892;2024-03-02T05:53:19;11.10;1.00
11639;DHT22;5875;35.940;126.892;2024-03-02T05:55:46;11.10;1.00
11639;DHT22;5875;35.940;126.892;2024-03-02T05:58:13;10.90;1.00
11639;DHT22;5875;35.940;126.892;2024-03-02T06:00:58;10.90;1.00
11639;DHT22;5875;35.940;126.892;2024-03-02T06:03:26;10.70;1.00
11639;DHT22;5875;35.940;126.892;2024-03-02T06:05:55;10.80;1.00
11639;DHT22;5875;35.940;126.892;2024-03-02T06:08:22;10.70;1.00
11639;DHT22;5875;35.940;126.892;2024-03-02T06:10:49;10.60;1.00
11639;DHT22;5875;35.940;126.892;2024-03-02T06:13:16;10.40;1.00
11639;DHT22;5875;35.940;126.892;2024-03-02T06:15:49;10.20;1.00
11639;DHT22;5875;35.940;126.892;2024-03-02T06:18:18;10.10;1.00
11639;DHT22;5875;35.940;126.892;2024-03-02T06:20:45;10.20;1.00
11639;DHT22;5875;35.940;126.892;2024-03-02T06:23:16;9.70;1.00
11639;DHT22;5875;35.940;126.892;2024-03-02T06:25:43;9.80;1.00
11639;DHT22;5875;35.940;126.892;2024-03-02T06:28:10;10.10;1.00
11639;DHT22;5875;35.940;126.892;2024-03-02T06:30:37;10.10;1.00
11639;DHT22;5875;35.940;126.892;2024-03-02T06:33:04;10.10;1.00
11639;DHT22;5875;35.940;126.892;2024-03-02T06:35:32;10.00;1.00
11639;DHT22;5875;35.940;126.892;2024-03-02T06:37:59;10.10;1.00
11639;DHT22;5875;35.940;126.892;2024-03-02T06:40:26;10.00;1.00
11639;DHT22;5875;35.940;126.892;2024-03-02T06:42:53;10.10;1.00
11639;DHT22;5875;35.940;126.892;2024-03-02T06:45:23;10.10;1.00
11639;DHT22;5875;35.940;126.892;2024-03-02T06:47:54;10.10;1.00
11639;DHT22;5875;35.940;126.892;2024-03-02T06:50:21;10.10;1.00
11639;DHT22;5875;35.940;126.892;2024-03-02T06:52:48;10.10;1.00
11639;DHT22;5875;35.940;126.892;2024-03-02T06:55:15;10.10;1.00
11639;DHT22;5875;35.940;126.892;2024-03-02T06:57:45;9.80;1.00
11639;DHT22;5875;35.940;126.892;2024-03-02T07:00:13;9.60;1.00
11639;DHT22;5875;35.940;126.892;2024-03-02T07:02:40;9.40;1.00
11639;DHT22;5875;35.940;126.892;2024-03-02T07:05:10;9.50;1.00
11639;DHT22;5875;35.940;126.892;2024-03-02T07:07:40;9.40;1.00
11639;DHT22;5875;35.940;126.892;2024-03-02T07:10:08;9.20;1.00
11639;DHT22;5875;35.940;126.892;2024-03-02T07:12:35;9.10;1.00
11639;DHT22;5875;35.940;126.892;2024-03-02T07:15:03;9.20;1.00
11639;DHT22;5875;35.940;126.892;2024-03-02T07:17:33;9.10;1.00
11639;DHT22;5875;35.940;126.892;2024-03-02T07:20:00;8.90;1.00
11639;DHT22;5875;35.940;126.892;2024-03-02T07:22:27;8.70;1.00
11639;DHT22;5875;35.940;126.892;2024-03-02T07:24:54;8.60;1.00
11639;DHT22;5875;35.940;126.892;2024-03-02T07:27:22;8.30;1.00
11639;DHT22;5875;35.940;126.892;2024-03-02T07:29:49;8.30;1.00
11639;DHT22;5875;35.940;126.892;2024-03-02T07:32:16;8.40;1.00
11639;DHT22;5875;35.940;126.892;2024-03-02T07:34:43;8.30;1.00
11639;DHT22;5875;35.940;126.892;2024-03-02T07:37:10;8.10;1.00
11639;DHT22;5875;35.940;126.892;2024-03-02T07:39:37;8.00;1.00
11639;DHT22;5875;35.940;126.892;2024-03-02T07:42:05;8.10;1.00
11639;DHT22;5875;35.940;126.892;2024-03-02T07:44:32;8.10;1.00
11639;DHT22;5875;35.940;126.892;2024-03-02T07:46:59;7.90;1.00
11639;DHT22;5875;35.940;126.892;2024-03-02T07:49:26;8.00;1.00
11639;DHT22;5875;35.940;126.892;2024-03-02T07:51:53;8.20;1.00
11639;DHT22;5875;35.940;126.892;2024-03-02T07:54:20;8.10;1.00
11639;DHT22;5875;35.940;126.892;2024-03-02T07:56:48;8.10;1.00
11639;DHT22;5875;35.940;126.892;2024-03-02T07:59:15;8.10;1.00
11639;DHT22;5875;35.940;126.892;2024-03-02T08:01:42;8.10;1.00
11639;DHT22;5875;35.940;126.892;2024-03-02T08:04:09;7.90;1.00
11639;DHT22;5875;35.940;126.892;2024-03-02T08:06:36;7.80;1.00
11639;DHT22;5875;35.940;126.892;2024-03-02T08:09:03;7.80;1.00
11639;DHT22;5875;35.940;126.892;2024-03-02T08:11:35;7.70;1.00
11639;DHT22;5875;35.940;126.892;2024-03-02T08:14:04;7.60;1.00
11639;DHT22;5875;35.940;126.892;2024-03-02T08:16:31;7.50;1.00
11639;DHT22;5875;35.940;126.892;2024-03-02T08:18:59;7.60;1.00
11639;DHT22;5875;35.940;126.892;2024-03-02T08:21:26;7.50;1.00
11639;DHT22;5875;35.940;126.892;2024-03-02T08:23:57;7.60;1.00
11639;DHT22;5875;35.940;126.892;2024-03-02T08:26:24;7.40;1.00
11639;DHT22;5875;35.940;126.892;2024-03-02T08:28:52;7.50;1.00
11639;DHT22;5875;35.940;126.892;2024-03-02T08:31:19;7.40;1.00
11639;DHT22;5875;35.940;126.892;2024-03-02T08:33:46;7.30;1.00
11639;DHT22;5875;35.940;126.892;2024-03-02T08:36:13;7.30;1.00
11639;DHT22;5875;35.940;126.892;2024-03-02T08:38:40;7.20;1.00
11639;DHT22;5875;35.940;126.892;2024-03-02T08:41:07;7.30;1.00
11639;DHT22;5875;35.940;126.892;2024-03-02T08:43:35;7.00;1.00
11639;DHT22;5875;35.940;126.892;2024-03-02T08:46:02;7.10;1.00
11639;DHT22;5875;35.940;126.892;2024-03-02T08:48:32;7.10;1.00
11639;DHT22;5875;35.940;126.892;2024-03-02T08:50:59;7.20;1.00
11639;DHT22;5875;35.940;126.892;2024-03-02T08:53:26;7.00;1.00
11639;DHT22;5875;35.940;126.892;2024-03-02T08:55:53;6.90;1.00
11639;DHT22;5875;35.940;126.892;2024-03-02T08:58:21;6.90;1.00
11639;DHT22;5875;35.940;126.892;2024-03-02T09:00:48;6.70;1.00
11639;DHT22;5875;35.940;126.892;2024-03-02T09:03:16;6.60;1.00
11639;DHT22;5875;35.940;126.892;2024-03-02T09:05:43;6.70;1.00
11639;DHT22;5875;35.940;126.892;2024-03-02T09:08:10;6.70;1.00
11639;DHT22;5875;35.940;126.892;2024-03-02T09:10:40;6.70;1.00
11639;DHT22;5875;35.940;126.892;2024-03-02T09:13:07;6.30;1.00
11639;DHT22;5875;35.940;126.892;2024-03-02T09:15:34;6.50;1.00
11639;DHT22;5875;35.940;126.892;2024-03-02T09:18:04;6.30;1.00
11639;DHT22;5875;35.940;126.892;2024-03-02T09:20:31;6.20;1.00
11639;DHT22;5875;35.940;126.892;2024-03-02T09:22:58;6.20;1.00
11639;DHT22;5875;35.940;126.892;2024-03-02T09:25:25;6.20;1.00
11639;DHT22;5875;35.940;126.892;2024-03-02T09:27:52;6.20;1.00
11639;DHT22;5875;35.940;126.892;2024-03-02T09:30:22;6.10;1.00
11639;DHT22;5875;35.940;126.892;2024-03-02T09:32:49;6.10;1.00
11639;DHT22;5875;35.940;126.892;2024-03-02T09:35:16;6.00;1.00
11639;DHT22;5875;35.940;126.892;2024-03-02T09:37:44;6.00;1.00
11639;DHT22;5875;35.940;126.892;2024-03-02T09:40:12;5.90;1.00
11639;DHT22;5875;35.940;126.892;2024-03-02T09:42:41;5.70;1.00
11639;DHT22;5875;35.940;126.892;2024-03-02T09:45:08;5.80;1.00
11639;DHT22;5875;35.940;126.892;2024-03-02T09:47:35;5.70;1.00
11639;DHT22;5875;35.940;126.892;2024-03-02T09:50:03;5.60;1.00
11639;DHT22;5875;35.940;126.892;2024-03-02T09:52:31;5.50;1.00
11639;DHT22;5875;35.940;126.892;2024-03-02T09:54:58;5.40;1.00
11639;DHT22;5875;35.940;126.892;2024-03-02T09:57:28;5.50;1.00
11639;DHT22;5875;35.940;126.892;2024-03-02T09:59:55;5.50;1.00
11639;DHT22;5875;35.940;126.892;2024-03-02T10:02:26;5.50;1.00
11639;DHT22;5875;35.940;126.892;2024-03-02T10:04:53;5.40;1.00
11639;DHT22;5875;35.940;126.892;2024-03-02T10:07:20;5.50;1.00
11639;DHT22;5875;35.940;126.892;2024-03-02T10:09:48;5.40;1.00
11639;DHT22;5875;35.940;126.892;2024-03-02T10:12:17;5.40;1.00
11639;DHT22;5875;35.940;126.892;2024-03-02T10:14:44;5.50;1.00
11639;DHT22;5875;35.940;126.892;2024-03-02T10:17:13;5.50;1.00
11639;DHT22;5875;35.940;126.892;2024-03-02T10:19:40;5.50;1.00
11639;DHT22;5875;35.940;126.892;2024-03-02T10:22:10;5.30;1.00
11639;DHT22;5875;35.940;126.892;2024-03-02T10:24:41;5.30;1.00
11639;DHT22;5875;35.940;126.892;2024-03-02T10:27:17;5.30;1.00
11639;DHT22;5875;35.940;126.892;2024-03-02T10:29:48;5.20;1.00
11639;DHT22;5875;35.940;126.892;2024-03-02T10:32:15;5.20;1.00
11639;DHT22;5875;35.940;126.892;2024-03-02T10:34:45;5.10;1.00
11639;DHT22;5875;35.940;126.892;2024-03-02T10:37:14;4.90;1.00
11639;DHT22;5875;35.940;126.892;2024-03-02T10:39:43;4.60;1.00
11639;DHT22;5875;35.940;126.892;2024-03-02T10:42:12;4.40;1.00
11639;DHT22;5875;35.940;126.892;2024-03-02T10:44:44;4.30;1.00
11639;DHT22;5875;35.940;126.892;2024-03-02T10:47:12;4.20;1.00
11639;DHT22;5875;35.940;126.892;2024-03-02T10:49:44;4.00;1.00
11639;DHT22;5875;35.940;126.892;2024-03-02T10:52:13;3.90;1.00
11639;DHT22;5875;35.940;126.892;2024-03-02T10:54:40;3.80;1.00
11639;DHT22;5875;35.940;126.892;2024-03-02T10:57:08;3.60;1.00
11639;DHT22;5875;35.940;126.892;2024-03-02T10:59:37;3.60;1.00
11639;DHT22;5875;35.940;126.892;2024-03-02T11:02:11;3.60;2.40
11639;DHT22;5875;35.940;126.892;2024-03-02T11:04:40;3.60;6.10
11639;DHT22;5875;35.940;126.892;2024-03-02T11:07:10;3.50;8.00
11639;DHT22;5875;35.940;126.892;2024-03-02T11:09:50;3.50;9.30
11639;DHT22;5875;35.940;126.892;2024-03-02T11:12:38;3.50;8.10
11639;DHT22;5875;35.940;126.892;2024-03-02T11:15:10;3.40;8.20
11639;DHT22;5875;35.940;126.892;2024-03-02T11:17:39;3.30;6.80
11639;DHT22;5875;35.940;126.892;2024-03-02T11:20:08;3.30;6.90
11639;DHT22;5875;35.940;126.892;2024-03-02T11:22:39;3.20;8.30
11639;DHT22;5875;35.940;126.892;2024-03-02T11:25:26;3.10;10.50
11639;DHT22;5875;35.940;126.892;2024-03-02T11:33:05;3.00;16.60
11639;DHT22;5875;35.940;126.892;2024-03-02T11:35:37;3.00;18.50
11639;DHT22;5875;35.940;126.892;2024-03-02T11:38:04;2.90;19.30
11639;DHT22;5875;35.940;126.892;2024-03-02T11:40:33;2.90;18.80
11639;DHT22;5875;35.940;126.892;2024-03-02T11:43:01;3.00;18.30
11639;DHT22;5875;35.940;126.892;2024-03-02T11:45:28;3.00;18.70
11639;DHT22;5875;35.940;126.892;2024-03-02T11:47:59;3.10;19.60
11639;DHT22;5875;35.940;126.892;2024-03-02T11:50:30;3.10;20.90
11639;DHT22;5875;35.940;126.892;2024-03-02T11:52:58;3.10;19.90
11639;DHT22;5875;35.940;126.892;2024-03-02T11:55:27;3.10;21.50
11639;DHT22;5875;35.940;126.892;2024-03-02T11:57:55;3.00;21.20
11639;DHT22;5875;35.940;126.892;2024-03-02T12:00:22;3.00;23.00
11639;DHT22;5875;35.940;126.892;2024-03-02T12:03:07;3.00;22.80
11639;DHT22;5875;35.940;126.892;2024-03-02T12:05:35;3.00;23.70
11639;DHT22;5875;35.940;126.892;2024-03-02T12:08:04;2.90;25.30
11639;DHT22;5875;35.940;126.892;2024-03-02T12:10:34;2.80;26.30
11639;DHT22;5875;35.940;126.892;2024-03-02T12:13:06;2.80;28.30
11639;DHT22;5875;35.940;126.892;2024-03-02T12:15:35;2.80;29.70
11639;DHT22;5875;35.940;126.892;2024-03-02T12:18:06;2.70;32.50
11639;DHT22;5875;35.940;126.892;2024-03-02T12:20:34;2.70;33.70
11639;DHT22;5875;35.940;126.892;2024-03-02T12:23:05;2.80;32.90
11639;DHT22;5875;35.940;126.892;2024-03-02T12:25:33;2.80;35.70
11639;DHT22;5875;35.940;126.892;2024-03-02T12:28:01;2.80;37.70
11639;DHT22;5875;35.940;126.892;2024-03-02T12:30:34;2.70;39.90
11639;DHT22;5875;35.940;126.892;2024-03-02T12:33:02;2.80;42.40
11639;DHT22;5875;35.940;126.892;2024-03-02T12:35:29;2.70;42.70
11639;DHT22;5875;35.940;126.892;2024-03-02T12:37:56;2.80;44.10
11639;DHT22;5875;35.940;126.892;2024-03-02T12:40:25;2.70;43.70
11639;DHT22;5875;35.940;126.892;2024-03-02T12:42:52;2.70;43.30
11639;DHT22;5875;35.940;126.892;2024-03-02T12:45:20;2.60;42.10
11639;DHT22;5875;35.940;126.892;2024-03-02T12:47:52;2.70;43.10
11639;DHT22;5875;35.940;126.892;2024-03-02T12:50:22;2.60;43.10
11639;DHT22;5875;35.940;126.892;2024-03-02T12:52:54;2.60;43.30
11639;DHT22;5875;35.940;126.892;2024-03-02T12:55:22;2.50;41.30
11639;DHT22;5875;35.940;126.892;2024-03-02T12:57:52;2.50;40.00
11639;DHT22;5875;35.940;126.892;2024-03-02T13:00:21;2.60;39.70
11639;DHT22;5875;35.940;126.892;2024-03-02T13:02:48;2.60;40.40
11639;DHT22;5875;35.940;126.892;2024-03-02T13:05:16;2.60;39.50
11639;DHT22;5875;35.940;126.892;2024-03-02T13:07:44;2.60;38.60
11639;DHT22;5875;35.940;126.892;2024-03-02T13:10:12;2.60;39.60
11639;DHT22;5875;35.940;126.892;2024-03-02T13:12:40;2.70;39.00
11639;DHT22;5875;35.940;126.892;2024-03-02T13:15:07;2.70;41.70
11639;DHT22;5875;35.940;126.892;2024-03-02T13:17:35;2.60;45.50
11639;DHT22;5875;35.940;126.892;2024-03-02T13:20:03;2.60;47.40
11639;DHT22;5875;35.940;126.892;2024-03-02T13:22:37;2.70;49.80
11639;DHT22;5875;35.940;126.892;2024-03-02T13:25:04;2.80;50.30
11639;DHT22;5875;35.940;126.892;2024-03-02T13:27:32;2.80;50.60
11639;DHT22;5875;35.940;126.892;2024-03-02T13:30:03;2.80;54.40
11639;DHT22;5875;35.940;126.892;2024-03-02T13:32:32;2.80;57.80
11639;DHT22;5875;35.940;126.892;2024-03-02T13:34:59;2.80;61.60
11639;DHT22;5875;35.940;126.892;2024-03-02T13:37:29;2.90;65.10
11639;DHT22;5875;35.940;126.892;2024-03-02T13:39:56;2.90;66.30
11639;DHT22;5875;35.940;126.892;2024-03-02T13:42:24;2.90;65.10
11639;DHT22;5875;35.940;126.892;2024-03-02T13:44:51;3.00;68.70
11639;DHT22;5875;35.940;126.892;2024-03-02T13:47:18;2.90;66.70
11639;DHT22;5875;35.940;126.892;2024-03-02T13:49:48;2.90;68.60
11639;DHT22;5875;35.940;126.892;2024-03-02T13:52:18;2.70;72.10
11639;DHT22;5875;35.940;126.892;2024-03-02T13:54:47;2.70;75.90
11639;DHT22;5875;35.940;126.892;2024-03-02T13:57:14;2.60;80.30
11639;DHT22;5875;35.940;126.892;2024-03-02T13:59:43;2.50;86.70
11639;DHT22;5875;35.940;126.892;2024-03-02T14:02:10;2.50;91.10
11639;DHT22;5875;35.940;126.892;2024-03-02T14:04:38;2.60;91.00
11639;DHT22;5875;35.940;126.892;2024-03-02T14:07:06;2.60;90.80
11639;DHT22;5875;35.940;126.892;2024-03-02T14:09:38;2.60;88.80
11639;DHT22;5875;35.940;126.892;2024-03-02T14:12:08;2.60;90.00
11639;DHT22;5875;35.940;126.892;2024-03-02T14:14:39;2.70;90.80
11639;DHT22;5875;35.940;126.892;2024-03-02T14:17:07;2.70;90.50
11639;DHT22;5875;35.940;126.892;2024-03-02T14:19:38;2.60;93.60
11639;DHT22;5875;35.940;126.892;2024-03-02T14:22:06;2.50;96.50
11639;DHT22;5875;35.940;126.892;2024-03-02T14:24:33;2.50;97.00
11639;DHT22;5875;35.940;126.892;2024-03-02T14:27:00;2.50;96.20
11639;DHT22;5875;35.940;126.892;2024-03-02T14:29:31;2.50;96.50
11639;DHT22;5875;35.940;126.892;2024-03-02T14:32:03;2.50;97.10
11639;DHT22;5875;35.940;126.892;2024-03-02T14:34:30;2.60;97.50
11639;DHT22;5875;35.940;126.892;2024-03-02T14:36:57;2.50;97.50
11639;DHT22;5875;35.940;126.892;2024-03-02T14:39:27;2.60;99.90
11639;DHT22;5875;35.940;126.892;2024-03-02T14:41:54;2.50;99.90
11639;DHT22;5875;35.940;126.892;2024-03-02T14:44:24;2.60;99.90
11639;DHT22;5875;35.940;126.892;2024-03-02T14:46:52;2.70;99.90
11639;DHT22;5875;35.940;126.892;2024-03-02T14:49:19;2.70;99.90
11639;DHT22;5875;35.940;126.892;2024-03-02T14:51:47;2.80;99.90
11639;DHT22;5875;35.940;126.892;2024-03-02T14:54:15;2.80;99.90
11639;DHT22;5875;35.940;126.892;2024-03-02T14:56:43;3.00;99.90
11639;DHT22;5875;35.940;126.892;2024-03-02T14:59:10;3.10;99.90
11639;DHT22;5875;35.940;126.892;2024-03-02T15:01:37;3.30;99.90
11639;DHT22;5875;35.940;126.892;2024-03-02T15:04:08;3.50;99.90
11639;DHT22;5875;35.940;126.892;2024-03-02T15:06:35;3.60;99.90
11639;DHT22;5875;35.940;126.892;2024-03-02T15:09:02;3.60;99.90
11639;DHT22;5875;35.940;126.892;2024-03-02T15:11:29;3.80;99.90
11639;DHT22;5875;35.940;126.892;2024-03-02T15:13:59;3.80;99.90
11639;DHT22;5875;35.940;126.892;2024-03-02T15:16:26;4.00;99.90
11639;DHT22;5875;35.940;126.892;2024-03-02T15:18:54;4.00;98.30
11639;DHT22;5875;35.940;126.892;2024-03-02T15:21:21;4.00;96.40
11639;DHT22;5875;35.940;126.892;2024-03-02T15:23:49;4.00;97.10
11639;DHT22;5875;35.940;126.892;2024-03-02T15:26:16;4.00;96.80
11639;DHT22;5875;35.940;126.892;2024-03-02T15:28:43;4.10;96.90
11639;DHT22;5875;35.940;126.892;2024-03-02T15:31:10;4.10;96.70
11639;DHT22;5875;35.940;126.892;2024-03-02T15:33:37;4.10;96.80
11639;DHT22;5875;35.940;126.892;2024-03-02T15:36:05;4.20;96.90
11639;DHT22;5875;35.940;126.892;2024-03-02T15:38:32;4.20;96.00
11639;DHT22;5875;35.940;126.892;2024-03-02T15:41:03;4.40;96.90
11639;DHT22;5875;35.940;126.892;2024-03-02T15:43:30;4.40;94.90
11639;DHT22;5875;35.940;126.892;2024-03-02T15:45:58;4.40;94.60
11639;DHT22;5875;35.940;126.892;2024-03-02T15:48:25;4.50;95.20
11639;DHT22;5875;35.940;126.892;2024-03-02T15:50:52;4.40;94.30
11639;DHT22;5875;35.940;126.892;2024-03-02T15:53:19;4.40;95.90